Time;durP1;ratioP1;P1;durP2;ratioP2;P2;SDS_P1;SDS_P2;PMS_P1;PMS_P2;Temp;Humidity;BMP_temperature;BMP_pressure;BME280_temperature;BME280_humidity;BME280_pressure;Samples;Min_cycle;Max_cycle;Signal;HPM_P1;HPM_P2
2021/12/01 00:07:36;;;;;;;6.50;4.30;;;;;;;1.86;81.72;98795.69;31426842;28;20175;-77
2021/12/01 00:22:38;;;;;;;9.13;4.67;;;;;;;1.63;83.21;98793.50;31424617;28;20501;-76
2021/12/01 00:37:41;;;;;;;10.97;4.93;;;;;;;1.56;84.74;98794.28;31457988;28;20049;-76
2021/12/01 00:52:43;;;;;;;7.00;4.10;;;;;;;1.44;85.49;98797.38;31420420;28;20052;-77
2021/12/01 01:07:46;;;;;;;8.60;4.37;;;;;;;1.35;85.30;98797.03;31464061;28;20048;-77
2021/12/01 01:22:48;;;;;;;10.33;4.40;;;;;;;1.25;87.38;98816.53;31441028;28;20045;-77
2021/12/01 01:37:50;;;;;;;10.20;4.87;;;;;;;1.08;86.64;98818.13;31472446;28;20140;-76
2021/12/01 01:52:52;;;;;;;9.83;5.57;;;;;;;1.09;87.19;98832.25;31456264;28;20453;-77
2021/12/01 02:07:54;;;;;;;20.40;10.27;;;;;;;1.02;88.32;98863.19;31438046;28;20081;-77
2021/12/01 02:22:59;;;;;;;20.80;11.47;;;;;;;0.83;88.49;98866.25;31473154;28;20135;-77
2021/12/01 02:38:03;;;;;;;22.13;9.63;;;;;;;0.61;87.72;98891.44;31443714;28;20048;-77
2021/12/01 02:53:05;;;;;;;18.27;8.40;;;;;;;0.63;88.89;98895.25;31418694;28;20417;-77
2021/12/01 03:08:08;;;;;;;12.80;6.73;;;;;;;0.55;88.75;98908.97;31442443;28;20132;-78
2021/12/01 03:23:10;;;;;;;12.47;7.13;;;;;;;0.48;88.69;98924.97;31456013;28;20059;-77
2021/12/01 03:38:15;;;;;;;13.60;6.07;;;;;;;0.34;88.92;98937.16;31426141;28;20052;-77
2021/12/01 03:53:19;;;;;;;14.63;7.90;;;;;;;0.13;89.68;98937.09;31442194;28;20139;-78
2021/12/01 04:08:21;;;;;;;16.27;8.47;;;;;;;0.02;90.42;98952.28;31438076;28;20053;-76
2021/12/01 04:23:23;;;;;;;16.37;9.30;;;;;;;-0.19;90.73;98966.31;31462039;28;20045;-77
2021/12/01 04:38:25;;;;;;;18.43;10.17;;;;;;;-0.33;91.30;98974.22;31450151;28;20057;-78
2021/12/01 04:53:27;;;;;;;22.40;10.23;;;;;;;-0.55;93.30;98984.00;31451455;28;20052;-77
2021/12/01 05:08:29;;;;;;;17.10;8.83;;;;;;;-0.71;93.67;98991.50;31436867;28;20135;-78
2021/12/01 05:23:31;;;;;;;22.87;9.90;;;;;;;-0.56;93.44;99009.13;31437156;28;20055;-77
2021/12/01 05:38:33;;;;;;;45.97;19.13;;;;;;;-0.36;93.74;99018.41;31427163;28;20044;-77
2021/12/01 05:53:36;;;;;;;22.03;8.67;;;;;;;2.19;84.69;99009.28;31456915;28;20148;-78
2021/12/01 06:08:41;;;;;;;18.80;8.03;;;;;;;1.86;85.52;99026.59;31455440;28;20045;-78
2021/12/01 06:23:44;;;;;;;15.10;7.37;;;;;;;1.14;85.39;99025.09;31430855;28;20083;-77
2021/12/01 06:38:46;;;;;;;15.17;6.97;;;;;;;1.53;85.87;99003.69;31422479;28;20144;-77
2021/12/01 06:53:48;;;;;;;13.23;6.90;;;;;;;1.17;91.06;98999.50;31461012;28;20050;-77
2021/12/01 07:08:49;;;;;;;7.83;5.73;;;;;;;0.95;92.06;98996.78;31408787;28;20044;-75
2021/12/01 07:23:51;;;;;;;11.67;5.40;;;;;;;1.50;90.12;98988.41;31430790;28;20048;-75
2021/12/01 07:38:54;;;;;;;6.07;3.73;;;;;;;1.93;88.33;98993.66;31449653;28;20106;-76
2021/12/01 07:53:56;;;;;;;8.43;4.77;;;;;;;1.81;84.42;99010.16;31443840;28;20049;-77
2021/12/01 08:09:00;;;;;;;7.63;5.13;;;;;;;1.84;84.28;98985.28;31441748;28;20052;-75
2021/12/01 08:24:02;;;;;;;6.70;3.70;;;;;;;1.82;84.16;98966.19;31442647;28;20056;-74
2021/12/01 08:39:05;;;;;;;11.83;5.47;;;;;;;1.88;83.79;98948.59;31441831;28;20064;-76
2021/12/01 08:54:07;;;;;;;4.80;3.57;;;;;;;1.94;84.18;98930.97;31426097;28;20048;-75
2021/12/01 09:09:09;;;;;;;7.20;4.30;;;;;;;2.33;83.23;98931.56;31462500;28;20053;-75
2021/12/01 09:24:11;;;;;;;8.97;4.40;;;;;;;2.77;84.99;98919.44;31475483;28;20057;-75
2021/12/01 09:39:13;;;;;;;8.63;4.57;;;;;;;2.92;84.15;98918.16;31412362;28;21135;-75
2021/12/01 09:54:15;;;;;;;5.80;3.50;;;;;;;3.27;83.46;98916.34;31466098;28;20125;-75
2021/12/01 10:09:18;;;;;;;9.37;4.93;;;;;;;4.72;76.83;98903.06;31472081;28;20368;-75
2021/12/01 10:24:24;;;;;;;7.47;4.30;;;;;;;3.06;85.37;98885.88;31461286;28;20510;-74
2021/12/01 10:39:26;;;;;;;5.80;4.30;;;;;;;2.49;89.42;98885.53;31426564;28;20508;-74
2021/12/01 10:54:28;;;;;;;4.97;3.00;;;;;;;2.21;91.86;98889.16;31441795;28;20053;-74
2021/12/01 11:09:30;;;;;;;11.90;6.27;;;;;;;2.13;92.83;98870.81;31450160;28;20450;-75
2021/12/01 11:24:32;;;;;;;13.50;5.37;;;;;;;2.05;93.96;98856.75;31425749;28;20052;-75
2021/12/01 11:39:35;;;;;;;12.03;6.23;;;;;;;2.18;94.45;98857.03;31452215;28;20128;-75
2021/12/01 11:54:45;;;;;;;11.43;5.50;;;;;;;2.14;95.76;98849.03;31429170;28;20413;-76
2021/12/01 12:10:18;;;;;;;14.90;6.10;;;;;;;2.20;96.98;98874.25;31429401;28;20057;-75
2021/12/01 12:25:44;;;;;;;14.17;8.43;;;;;;;2.36;98.47;98881.81;31414360;28;20403;-76
2021/12/01 12:41:04;;;;;;;10.90;4.30;;;;;;;2.66;94.00;98897.28;31431227;28;20053;-76
2021/12/01 12:56:27;;;;;;;10.93;5.93;;;;;;;2.79;92.02;98903.72;31517735;28;20092;-75
2021/12/01 13:11:29;;;;;;;10.20;5.67;;;;;;;2.73;91.17;98938.19;31457521;28;20574;-76
2021/12/01 13:26:34;;;;;;;13.17;6.87;;;;;;;2.76;90.66;98962.69;31491642;28;20481;-75
2021/12/01 13:41:52;;;;;;;14.83;7.63;;;;;;;2.80;90.35;98974.94;31480151;28;20080;-76
2021/12/01 13:56:58;;;;;;;13.80;7.70;;;;;;;2.79;90.62;98978.00;31454954;28;20124;-76
2021/12/01 14:12:03;;;;;;;11.27;6.00;;;;;;;2.89;90.99;98983.28;31461514;28;20084;-75
2021/12/01 14:27:13;;;;;;;9.80;6.13;;;;;;;2.84;91.05;99007.03;31487134;28;20102;-76
2021/12/01 14:42:15;;;;;;;10.67;5.90;;;;;;;2.91;91.07;99018.50;31446146;28;20064;-75
2021/12/01 14:57:17;;;;;;;10.33;5.83;;;;;;;2.99;91.31;99040.66;31462878;28;20483;-74
2021/12/01 15:12:30;;;;;;;11.20;6.33;;;;;;;3.04;89.63;99059.03;31449015;28;20049;-75
2021/12/01 15:27:32;;;;;;;13.47;6.33;;;;;;;2.99;88.77;99088.94;31458155;28;20060;-75
2021/12/01 15:42:34;;;;;;;14.13;6.93;;;;;;;2.99;87.86;99092.38;31427619;28;20439;-75
2021/12/01 15:57:36;;;;;;;13.50;6.70;;;;;;;2.98;89.41;99114.97;31434592;28;20048;-74
2021/12/01 16:12:38;;;;;;;13.17;6.30;;;;;;;2.98;88.49;99108.84;31453500;28;20076;-74
2021/12/01 16:27:41;;;;;;;13.43;6.90;;;;;;;2.98;88.30;99131.06;31445620;28;20068;-74
2021/12/01 16:42:44;;;;;;;9.87;5.60;;;;;;;3.02;89.06;99142.53;31429189;28;20424;-74
2021/12/01 16:57:46;;;;;;;15.23;7.03;;;;;;;3.01;90.44;99173.19;31481190;28;20045;-73
2021/12/01 17:12:51;;;;;;;13.03;6.73;;;;;;;3.04;90.22;99209.19;31481597;28;20064;-75
2021/12/01 17:27:57;;;;;;;11.77;6.63;;;;;;;3.00;91.19;99225.28;31482692;28;20057;-75
2021/12/01 17:42:59;;;;;;;10.47;6.00;;;;;;;3.05;90.59;99221.44;31493189;28;20503;-75
2021/12/01 17:58:01;;;;;;;8.47;5.37;;;;;;;3.02;90.33;99228.34;31488344;28;20072;-76
2021/12/01 18:13:04;;;;;;;14.43;6.20;;;;;;;2.96;91.11;99272.78;31473285;28;20049;-76
2021/12/01 18:28:07;;;;;;;11.27;7.17;;;;;;;2.91;91.65;99291.94;31451584;28;20390;-75
2021/12/01 18:43:09;;;;;;;9.47;5.30;;;;;;;2.90;91.97;99311.84;31462559;28;20052;-76
2021/12/01 18:58:20;;;;;;;11.93;6.13;;;;;;;2.77;90.85;99345.56;31462567;28;20498;-76
2021/12/01 19:13:23;;;;;;;12.57;7.00;;;;;;;2.74;91.27;99367.78;31457873;28;20102;-74
2021/12/01 19:28:25;;;;;;;14.43;6.80;;;;;;;2.72;91.67;99386.91;31432773;28;20052;-74
2021/12/01 19:43:26;;;;;;;12.67;6.97;;;;;;;2.58;91.51;99391.50;31432603;28;20136;-74
2021/12/01 19:58:29;;;;;;;12.60;6.53;;;;;;;2.39;91.85;99427.44;31450809;28;20107;-76
2021/12/01 20:13:34;;;;;;;9.53;6.13;;;;;;;2.21;92.33;99448.81;31418054;28;20490;-77
2021/12/01 20:28:39;;;;;;;13.13;7.17;;;;;;;2.10;92.77;99464.09;31447624;28;20053;-76
2021/12/01 20:43:44;;;;;;;16.43;8.47;;;;;;;1.95;92.98;99494.59;31436877;28;20049;-74
2021/12/01 21:14:01;;;;;;;13.70;7.63;;;;;;;1.70;93.79;99521.19;31501413;28;20136;-76
2021/12/01 21:29:09;;;;;;;14.97;8.00;;;;;;;1.60;94.00;99541.41;31335478;28;20068;-75
2021/12/01 21:44:12;;;;;;;15.17;8.03;;;;;;;1.46;93.46;99567.25;31439736;28;20052;-76
2021/12/01 21:59:19;;;;;;;13.50;6.73;;;;;;;1.40;93.31;99598.94;31373958;28;20053;-75
2021/12/01 22:14:22;;;;;;;15.47;7.60;;;;;;;1.26;91.97;99620.19;31305363;28;20064;-74
2021/12/01 22:29:32;;;;;;;15.47;8.87;;;;;;;1.14;93.18;99644.53;31396900;28;20045;-74
2021/12/01 22:44:37;;;;;;;14.53;8.17;;;;;;;1.17;93.11;99652.59;31383588;28;20057;-74
2021/12/01 22:59:47;;;;;;;14.47;8.00;;;;;;;1.09;92.33;99675.03;31337949;28;20049;-74
2021/12/01 23:14:49;;;;;;;15.67;7.80;;;;;;;1.01;94.21;99706.22;31340696;28;20111;-73
2021/12/01 23:29:52;;;;;;;15.40;8.27;;;;;;;1.00;94.04;99718.06;31313308;28;20580;-74
2021/12/01 23:45:00;;;;;;;15.63;8.17;;;;;;;0.91;93.58;99740.88;31315097;28;20132;-75
